Time;durP1;ratioP1;P1;durP2;ratioP2;P2;SDS_P1;SDS_P2;PMS_P1;PMS_P2;Temp;Humidity;BMP_temperature;BMP_pressure;BME280_temperature;BME280_humidity;BME280_pressure;Samples;Min_cycle;Max_cycle;Signal;HPM_P1;HPM_P2
2022/11/17 00:01:13;;;;;;;29.80;15.15;;;10.50;99.90;;;;;;5033900;28;20078;-64
2022/11/17 00:03:39;;;;;;;25.20;14.73;;;10.40;99.90;;;;;;5034484;28;20388;-66
2022/11/17 00:06:05;;;;;;;20.52;13.50;;;10.50;99.90;;;;;;5032234;28;20065;-65
2022/11/17 00:08:31;;;;;;;28.60;17.13;;;9.90;99.90;;;;;;5033644;28;20045;-65
2022/11/17 00:11:04;;;;;;;18.80;11.75;;;9.80;99.90;;;;;;5033711;28;20041;-65
2022/11/17 00:16:16;;;;;;;24.20;14.05;;;10.00;99.90;;;;;;5033537;28;20122;-64
2022/11/17 00:21:27;;;;;;;25.83;14.70;;;10.70;99.90;;;;;;5028706;28;20044;-64
2022/11/17 00:23:54;;;;;;;21.75;13.68;;;10.80;99.90;;;;;;5033790;28;20048;-64
2022/11/17 00:26:25;;;;;;;27.20;15.75;;;10.10;99.90;;;;;;5033668;28;20108;-64
2022/11/17 00:28:55;;;;;;;27.17;14.23;;;10.50;99.90;;;;;;5010875;28;20484;-64
2022/11/17 00:34:07;;;;;;;24.77;15.68;;;10.30;99.90;;;;;;5033520;28;20099;-64
2022/11/17 00:36:38;;;;;;;24.92;13.85;;;10.50;99.90;;;;;;5032829;28;20100;-64
2022/11/17 00:39:06;;;;;;;22.75;13.02;;;10.20;99.90;;;;;;5031031;28;20812;-64
2022/11/17 00:41:31;;;;;;;22.60;13.10;;;10.70;99.90;;;;;;5033275;28;20041;-64
2022/11/17 00:43:57;;;;;;;23.58;13.32;;;10.30;99.90;;;;;;5015974;28;20095;-64
2022/11/17 00:46:23;;;;;;;22.15;12.90;;;10.70;99.90;;;;;;5033336;28;20079;-64
2022/11/17 00:48:48;;;;;;;24.45;15.13;;;10.10;99.90;;;;;;5029685;28;20044;-64
2022/11/17 00:51:14;;;;;;;17.40;11.07;;;10.30;99.90;;;;;;5032701;28;20037;-64
2022/11/17 00:53:39;;;;;;;21.25;12.45;;;10.20;99.90;;;;;;5033113;28;20116;-64
2022/11/17 00:56:05;;;;;;;20.50;12.68;;;10.20;99.90;;;;;;5033100;28;20033;-64
2022/11/17 00:58:31;;;;;;;24.35;12.13;;;10.70;99.90;;;;;;5031437;28;20037;-64
2022/11/17 01:00:56;;;;;;;17.73;12.13;;;10.80;99.90;;;;;;5033022;28;20484;-64
2022/11/17 01:03:22;;;;;;;28.48;14.90;;;10.80;99.90;;;;;;5032716;28;20502;-64
2022/11/17 01:05:47;;;;;;;21.02;14.00;;;10.90;99.90;;;;;;5032048;28;20038;-64
2022/11/17 01:08:13;;;;;;;23.40;13.35;;;10.50;99.90;;;;;;5032025;28;20045;-64
2022/11/17 01:10:38;;;;;;;27.48;14.73;;;10.70;99.90;;;;;;5032129;28;20050;-64
2022/11/17 01:13:04;;;;;;;18.75;12.50;;;10.10;99.90;;;;;;5032338;28;20423;-64
2022/11/17 01:15:29;;;;;;;22.33;12.73;;;10.80;99.90;;;;;;5032151;28;20510;-64
2022/11/17 01:17:55;;;;;;;22.45;13.35;;;9.90;99.90;;;;;;5027425;28;20099;-64
2022/11/17 01:20:21;;;;;;;21.27;12.05;;;10.30;99.90;;;;;;5029208;28;20033;-64
2022/11/17 01:22:46;;;;;;;17.90;12.40;;;10.70;99.90;;;;;;5032341;28;20064;-64
2022/11/17 01:25:12;;;;;;;21.08;11.88;;;10.70;99.90;;;;;;5032566;28;20045;-64
2022/11/17 01:27:37;;;;;;;20.08;11.73;;;10.90;99.90;;;;;;5047987;28;20045;-64
2022/11/17 01:30:03;;;;;;;18.63;11.75;;;10.30;99.90;;;;;;5030332;28;20391;-64
2022/11/17 01:32:29;;;;;;;18.92;12.93;;;10.30;99.90;;;;;;5031948;28;20056;-64
2022/11/17 01:34:54;;;;;;;21.85;12.05;;;10.40;99.90;;;;;;5031275;28;20041;-64
2022/11/17 01:37:20;;;;;;;20.42;11.73;;;10.60;99.90;;;;;;5032009;28;20037;-64
2022/11/17 01:39:49;;;;;;;21.13;12.18;;;10.40;99.90;;;;;;5031247;28;20038;-64
2022/11/17 01:42:21;;;;;;;17.67;12.02;;;10.90;99.90;;;;;;5030645;28;20044;-64
2022/11/17 01:44:53;;;;;;;20.17;11.43;;;11.00;99.90;;;;;;5032143;28;20038;-64
2022/11/17 01:47:41;;;;;;;17.02;10.13;;;10.50;99.90;;;;;;5030593;28;20513;-64
2022/11/17 01:50:29;;;;;;;14.63;9.80;;;10.70;99.90;;;;;;5031529;28;20037;-64
2022/11/17 01:52:58;;;;;;;15.25;11.27;;;10.10;99.90;;;;;;5031917;28;20037;-64
2022/11/17 01:55:29;;;;;;;13.90;8.93;;;10.60;99.90;;;;;;5032077;28;20034;-64
2022/11/17 01:58:00;;;;;;;17.52;9.65;;;10.50;99.90;;;;;;5031300;28;20499;-64
2022/11/17 02:00:27;;;;;;;19.00;12.15;;;10.50;99.90;;;;;;5025822;28;20253;-64
2022/11/17 02:02:53;;;;;;;15.77;9.93;;;10.40;99.90;;;;;;5029588;28;20037;-64
2022/11/17 02:05:21;;;;;;;20.02;12.95;;;10.40;99.90;;;;;;5030678;28;20056;-65
2022/11/17 02:07:49;;;;;;;16.33;11.27;;;10.90;99.90;;;;;;5026986;28;20034;-65
2022/11/17 02:10:15;;;;;;;20.77;13.90;;;11.00;99.90;;;;;;5031626;28;20033;-65
2022/11/17 02:12:42;;;;;;;15.32;10.98;;;10.90;99.90;;;;;;5029450;28;20050;-65
2022/11/17 02:15:09;;;;;;;16.58;11.18;;;10.10;99.90;;;;;;5030006;28;20041;-65
2022/11/17 02:17:38;;;;;;;17.05;11.85;;;10.20;99.90;;;;;;5031251;28;20494;-64
2022/11/17 02:20:16;;;;;;;20.40;12.90;;;10.20;99.90;;;;;;5031395;28;20400;-64
2022/11/17 02:23:13;;;;;;;22.77;11.20;;;9.70;99.90;;;;;;5030401;28;20099;-64
2022/11/17 02:25:47;;;;;;;18.67;12.75;;;10.20;99.90;;;;;;5028448;28;20059;-64
2022/11/17 02:28:28;;;;;;;14.70;10.73;;;10.20;99.90;;;;;;5027801;28;20044;-64
2022/11/17 02:30:56;;;;;;;16.73;10.77;;;10.30;99.90;;;;;;5031988;28;20037;-64
2022/11/17 02:33:35;;;;;;;21.17;12.77;;;9.50;99.90;;;;;;5031103;28;20514;-65
2022/11/17 02:36:09;;;;;;;19.23;11.75;;;10.20;99.90;;;;;;5025197;28;20168;-64
2022/11/17 02:38:53;;;;;;;14.65;10.10;;;9.10;99.90;;;;;;5030680;28;20049;-65
2022/11/17 02:41:28;;;;;;;19.17;12.15;;;9.60;99.90;;;;;;5032123;28;20048;-64
2022/11/17 02:44:15;;;;;;;17.92;12.52;;;10.40;99.90;;;;;;5014908;28;20172;-65
2022/11/17 02:47:07;;;;;;;19.17;12.07;;;10.70;99.90;;;;;;5030710;28;20045;-65
2022/11/17 02:49:40;;;;;;;22.67;13.43;;;10.30;99.90;;;;;;5014538;28;20049;-64
2022/11/17 02:52:07;;;;;;;17.15;12.52;;;10.40;99.90;;;;;;5014914;28;20117;-65
2022/11/17 02:54:33;;;;;;;16.90;12.23;;;10.30;99.90;;;;;;5014972;28;20070;-65
2022/11/17 02:56:59;;;;;;;19.00;12.57;;;10.30;99.90;;;;;;5032706;28;20048;-65
2022/11/17 02:59:32;;;;;;;17.63;13.70;;;10.00;99.90;;;;;;5034885;28;20042;-64
2022/11/17 03:02:27;;;;;;;21.02;13.85;;;9.60;99.90;;;;;;5018177;28;20045;-65
2022/11/17 03:05:12;;;;;;;15.25;10.48;;;10.20;99.90;;;;;;5031345;28;20057;-65
2022/11/17 03:08:00;;;;;;;16.77;10.75;;;10.20;99.90;;;;;;5017514;28;20050;-64
2022/11/17 03:10:43;;;;;;;19.27;12.05;;;10.40;99.90;;;;;;5016777;28;20569;-64
2022/11/17 03:13:23;;;;;;;14.95;10.35;;;9.80;99.90;;;;;;5024056;28;20041;-64
2022/11/17 03:15:55;;;;;;;13.32;10.38;;;10.50;99.90;;;;;;5032290;28;20030;-64
2022/11/17 03:18:34;;;;;;;19.77;12.90;;;10.20;99.90;;;;;;5033486;28;20133;-64
2022/11/17 03:21:28;;;;;;;12.77;10.30;;;10.00;99.90;;;;;;5035296;28;20525;-64
2022/11/17 03:24:30;;;;;;;15.70;9.55;;;9.90;99.90;;;;;;5033858;28;20510;-64
2022/11/17 03:27:09;;;;;;;12.77;8.82;;;10.10;99.90;;;;;;5019335;28;20096;-64
2022/11/17 03:29:40;;;;;;;15.25;9.85;;;9.70;99.90;;;;;;5034933;28;20483;-64
2022/11/17 03:32:07;;;;;;;14.45;10.32;;;9.70;99.90;;;;;;5033322;28;20049;-65
2022/11/17 03:34:39;;;;;;;15.63;10.70;;;10.00;99.90;;;;;;5031108;28;20053;-64
2022/11/17 03:37:07;;;;;;;15.02;11.85;;;10.10;99.90;;;;;;5031995;28;20495;-64
2022/11/17 03:39:43;;;;;;;13.63;9.48;;;10.30;99.90;;;;;;5034579;28;20557;-64
2022/11/17 03:42:29;;;;;;;;;;;10.30;99.90;;;;;;5034854;28;20403;-64
2022/11/17 03:45:08;;;;;;;14.48;10.63;;;10.40;99.90;;;;;;5031804;28;20395;-64
2022/11/17 03:47:34;;;;;;;14.38;9.63;;;10.00;99.90;;;;;;5032808;28;20080;-64
2022/11/17 03:50:29;;;;;;;14.40;10.20;;;10.10;99.90;;;;;;5034395;28;20037;-64
2022/11/17 03:52:55;;;;;;;12.98;9.35;;;9.70;99.90;;;;;;5019845;28;20045;-64
2022/11/17 03:55:26;;;;;;;12.93;9.13;;;9.90;99.90;;;;;;5032869;28;20044;-64
2022/11/17 03:57:55;;;;;;;15.02;10.57;;;9.70;99.90;;;;;;5032302;28;20446;-63
2022/11/17 04:00:21;;;;;;;19.52;11.32;;;10.00;99.90;;;;;;5034050;28;20112;-64
2022/11/17 04:02:52;;;;;;;12.40;9.25;;;10.10;99.90;;;;;;5033823;28;20470;-64
2022/11/17 04:05:18;;;;;;;13.88;8.63;;;10.40;99.90;;;;;;5031767;28;20033;-64
2022/11/17 04:07:45;;;;;;;11.60;7.95;;;10.00;99.90;;;;;;5034053;28;20430;-64
2022/11/17 04:10:14;;;;;;;12.88;9.07;;;10.30;99.90;;;;;;5034138;28;20045;-64
2022/11/17 04:18:08;;;;;;;12.13;8.63;;;9.60;99.90;;;;;;5032265;28;20049;-65
2022/11/17 04:20:37;;;;;;;12.48;8.82;;;9.80;99.90;;;;;;5031059;28;20524;-64
2022/11/17 04:23:06;;;;;;;14.40;8.73;;;10.20;99.90;;;;;;5033865;28;20129;-64
2022/11/17 04:28:36;;;;;;;12.85;9.65;;;10.10;99.90;;;;;;5033420;28;20566;-64
2022/11/17 04:31:03;;;;;;;14.80;8.48;;;10.10;99.90;;;;;;5032768;28;20038;-64
2022/11/17 04:33:28;;;;;;;12.38;8.98;;;10.10;99.90;;;;;;5032384;28;20037;-64
2022/11/17 04:35:54;;;;;;;13.75;9.07;;;9.90;99.90;;;;;;5031051;28;20022;-64
2022/11/17 04:38:19;;;;;;;12.90;8.90;;;10.00;99.90;;;;;;5034102;28;20068;-64
2022/11/17 04:43:29;;;;;;;13.57;8.43;;;10.00;99.90;;;;;;5032145;28;20053;-64
2022/11/17 04:45:59;;;;;;;13.25;9.60;;;9.50;99.90;;;;;;5030989;28;20064;-64
2022/11/17 04:48:25;;;;;;;11.80;8.20;;;10.20;99.90;;;;;;5032933;28;20049;-64
2022/11/17 04:50:55;;;;;;;10.10;7.35;;;10.10;99.90;;;;;;5033438;28;20035;-63
2022/11/17 04:53:22;;;;;;;13.68;9.10;;;10.10;99.90;;;;;;5033259;28;20041;-63
2022/11/17 04:55:48;;;;;;;10.10;7.57;;;10.40;99.90;;;;;;5029809;28;20095;-64
2022/11/17 04:58:13;;;;;;;12.27;7.55;;;10.20;99.90;;;;;;5031316;28;20446;-64
2022/11/17 05:00:39;;;;;;;10.35;7.43;;;10.30;99.90;;;;;;5032915;28;20041;-64
2022/11/17 05:03:05;;;;;;;10.43;8.20;;;9.90;99.90;;;;;;5029122;28;20033;-64
2022/11/17 05:05:30;;;;;;;10.95;8.52;;;9.80;99.90;;;;;;5030910;28;20118;-64
2022/11/17 05:07:56;;;;;;;10.07;7.30;;;9.90;99.90;;;;;;5032173;28;20045;-64
2022/11/17 05:13:20;;;;;;;9.85;7.32;;;9.70;99.90;;;;;;5014965;28;20103;-64
2022/11/17 05:13:20;;;;;;;7.75;6.07;;;9.70;99.90;;;;;;5017444;28;20403;-64
2022/11/17 05:18:37;;;;;;;12.18;9.40;;;10.20;99.90;;;;;;5032500;28;20048;-64
2022/11/17 05:21:04;;;;;;;10.50;8.52;;;10.30;99.90;;;;;;5032518;28;20044;-65
2022/11/17 05:26:14;;;;;;;13.30;8.98;;;10.00;99.90;;;;;;5031855;28;20475;-63
2022/11/17 05:28:40;;;;;;;9.45;7.70;;;9.80;99.90;;;;;;5032411;28;20052;-64
2022/11/17 05:31:06;;;;;;;10.45;7.65;;;9.80;99.90;;;;;;5032179;28;20030;-63
2022/11/17 05:33:31;;;;;;;8.93;6.65;;;9.80;99.90;;;;;;5031612;28;20087;-63
2022/11/17 05:35:57;;;;;;;10.45;7.75;;;9.60;99.90;;;;;;5030903;28;20045;-64
2022/11/17 05:38:22;;;;;;;11.98;7.65;;;10.00;99.90;;;;;;5032425;28;20043;-63
2022/11/17 05:40:48;;;;;;;11.57;7.90;;;10.00;99.90;;;;;;5027120;28;20488;-63
2022/11/17 05:43:13;;;;;;;13.52;7.32;;;10.00;99.90;;;;;;5028661;28;20049;-63
2022/11/17 05:45:39;;;;;;;9.60;7.68;;;10.30;99.90;;;;;;5031270;28;20120;-64
2022/11/17 05:48:05;;;;;;;9.65;8.52;;;10.30;99.90;;;;;;5031691;28;20080;-63
2022/11/17 05:50:30;;;;;;;10.32;7.28;;;10.20;99.90;;;;;;5031592;28;20052;-63
2022/11/17 05:52:56;;;;;;;9.73;7.72;;;10.00;99.90;;;;;;5030254;28;20041;-64
2022/11/17 05:55:21;;;;;;;9.88;7.68;;;9.70;99.90;;;;;;5031919;28;20033;-63
2022/11/17 05:57:48;;;;;;;8.25;6.72;;;9.70;99.90;;;;;;5032000;28;20487;-63
2022/11/17 06:00:14;;;;;;;8.50;7.60;;;9.80;99.90;;;;;;5030742;28;20029;-63
2022/11/17 06:02:54;;;;;;;8.30;6.72;;;9.60;99.90;;;;;;5031503;28;20380;-63
2022/11/17 06:05:22;;;;;;;8.50;7.38;;;9.70;99.90;;;;;;5031449;28;20041;-64
2022/11/17 06:07:49;;;;;;;9.57;8.40;;;9.60;99.90;;;;;;5026767;28;20129;-63
2022/11/17 06:10:15;;;;;;;9.05;6.78;;;9.90;99.90;;;;;;5029803;28;20069;-63
2022/11/17 06:12:41;;;;;;;7.88;6.15;;;9.90;99.90;;;;;;5031181;28;20077;-63
2022/11/17 06:15:06;;;;;;;10.07;7.82;;;10.10;99.90;;;;;;5030465;28;20037;-63
2022/11/17 06:17:41;;;;;;;8.82;6.82;;;10.10;99.90;;;;;;5029260;28;20037;-63
2022/11/17 06:20:20;;;;;;;9.75;7.30;;;10.10;99.90;;;;;;5027530;28;20069;-63
2022/11/17 06:22:46;;;;;;;9.00;8.10;;;9.60;99.90;;;;;;5031000;28;20501;-63
2022/11/17 06:25:12;;;;;;;9.27;7.35;;;9.80;99.90;;;;;;5031533;28;20418;-63
2022/11/17 06:27:39;;;;;;;9.65;6.85;;;9.50;99.90;;;;;;5030308;28;20037;-63
2022/11/17 06:30:05;;;;;;;7.93;6.60;;;9.40;99.90;;;;;;5031753;28;20033;-63
2022/11/17 06:32:36;;;;;;;8.43;6.28;;;9.50;99.90;;;;;;5031075;28;20067;-63
2022/11/17 06:35:06;;;;;;;8.35;7.13;;;9.40;99.90;;;;;;5025380;28;20034;-63
2022/11/17 06:37:32;;;;;;;9.60;7.20;;;9.60;99.90;;;;;;5031665;28;20039;-63
2022/11/17 06:39:58;;;;;;;8.65;7.38;;;9.70;99.90;;;;;;5031219;28;20376;-63
2022/11/17 06:43:02;;;;;;;9.65;6.68;;;9.80;99.90;;;;;;5029611;28;20172;-63
2022/11/17 06:45:10;;;;;;;9.75;7.63;;;9.80;99.90;;;;;;5030740;28;20045;-63
2022/11/17 06:47:36;;;;;;;7.95;6.82;;;9.80;99.90;;;;;;5030953;28;20033;-63
2022/11/17 06:50:02;;;;;;;8.23;6.25;;;9.80;99.90;;;;;;5030496;28;20032;-63
2022/11/17 06:52:28;;;;;;;8.43;6.88;;;9.60;99.90;;;;;;5029392;28;20069;-63
2022/11/17 06:54:53;;;;;;;9.68;7.40;;;9.60;99.90;;;;;;5030182;28;20120;-63
2022/11/17 06:57:19;;;;;;;8.68;6.72;;;9.40;99.90;;;;;;5029683;28;20444;-63
2022/11/17 06:59:44;;;;;;;8.32;6.43;;;9.30;99.90;;;;;;5030125;28;20208;-63
2022/11/17 07:02:10;;;;;;;7.30;5.97;;;9.30;99.90;;;;;;5029603;28;20041;-63
2022/11/17 07:04:36;;;;;;;8.60;7.38;;;9.30;99.90;;;;;;5028722;28;20088;-63
2022/11/17 07:07:02;;;;;;;6.88;5.15;;;9.20;99.90;;;;;;5028679;28;20038;-64
2022/11/17 07:09:27;;;;;;;8.27;5.97;;;9.40;99.90;;;;;;5028848;28;20044;-63
2022/11/17 07:11:53;;;;;;;7.00;5.40;;;9.60;99.90;;;;;;5030120;28;20049;-63
2022/11/17 07:14:18;;;;;;;6.47;5.78;;;9.60;99.90;;;;;;5028830;28;20559;-63
2022/11/17 07:16:44;;;;;;;8.90;6.20;;;9.60;99.90;;;;;;5024985;28;20492;-63
2022/11/17 07:19:10;;;;;;;7.10;6.10;;;9.60;99.90;;;;;;5023965;28;20042;-63
2022/11/17 07:21:36;;;;;;;7.32;5.90;;;9.60;99.90;;;;;;5029436;28;20042;-63
2022/11/17 07:24:02;;;;;;;8.82;5.63;;;9.30;99.90;;;;;;5024555;28;20033;-62
2022/11/17 07:26:28;;;;;;;9.95;6.63;;;9.30;99.90;;;;;;5030685;28;20444;-63
2022/11/17 07:28:54;;;;;;;7.13;5.85;;;9.30;99.90;;;;;;5028012;28;20041;-62
2022/11/17 07:31:19;;;;;;;7.63;5.82;;;9.30;99.90;;;;;;5027115;28;20117;-63
2022/11/17 07:33:45;;;;;;;5.90;5.30;;;9.20;99.90;;;;;;5023104;28;20049;-62
2022/11/17 07:36:15;;;;;;;8.80;5.88;;;9.20;99.90;;;;;;5028184;28;20044;-62
2022/11/17 07:38:41;;;;;;;8.07;6.43;;;9.10;99.90;;;;;;5033977;28;20514;-62
2022/11/17 07:41:08;;;;;;;8.00;5.40;;;9.10;99.90;;;;;;5026518;28;20065;-62
2022/11/17 07:43:34;;;;;;;7.25;5.72;;;8.90;99.90;;;;;;5014770;28;20436;-62
2022/11/17 07:46:09;;;;;;;6.85;5.47;;;9.00;99.90;;;;;;5033822;28;20491;-63
2022/11/17 07:48:34;;;;;;;8.50;6.78;;;9.20;99.90;;;;;;5026000;28;20545;-63
2022/11/17 07:51:01;;;;;;;7.18;6.25;;;9.50;99.90;;;;;;5025302;28;20038;-63
2022/11/17 07:53:27;;;;;;;8.70;6.07;;;9.50;99.90;;;;;;5023696;28;20042;-64
2022/11/17 07:55:54;;;;;;;7.30;6.03;;;9.60;99.90;;;;;;5021847;28;20037;-63
2022/11/17 07:58:19;;;;;;;7.20;6.47;;;9.40;99.90;;;;;;5023500;28;20183;-63
2022/11/17 08:00:45;;;;;;;7.22;5.88;;;9.30;99.90;;;;;;5025212;28;20124;-63
2022/11/17 08:03:10;;;;;;;8.50;7.55;;;9.20;99.90;;;;;;5027577;28;20037;-63
2022/11/17 08:05:38;;;;;;;9.13;6.43;;;9.20;99.90;;;;;;5033904;28;20033;-63
2022/11/17 08:08:04;;;;;;;6.45;5.63;;;9.10;99.90;;;;;;5032170;28;20049;-63
2022/11/17 08:10:30;;;;;;;7.65;5.85;;;9.20;99.90;;;;;;5033528;28;20029;-62
2022/11/17 08:12:57;;;;;;;6.65;5.53;;;9.20;99.90;;;;;;5030973;28;20132;-63
2022/11/17 08:15:23;;;;;;;6.82;6.13;;;9.00;99.90;;;;;;5032077;28;20049;-63
2022/11/17 08:17:54;;;;;;;8.50;6.88;;;9.00;99.90;;;;;;5029579;28;20040;-63
2022/11/17 08:20:20;;;;;;;8.43;5.60;;;9.10;99.90;;;;;;5027341;28;20551;-63
2022/11/17 08:22:47;;;;;;;7.53;6.68;;;9.40;99.90;;;;;;5021015;28;20042;-63
2022/11/17 08:25:13;;;;;;;6.80;5.93;;;9.50;99.90;;;;;;5027062;28;21681;-63
2022/11/17 08:27:39;;;;;;;8.50;7.53;;;9.50;99.90;;;;;;5023478;28;20147;-63
2022/11/17 08:30:06;;;;;;;7.95;6.03;;;9.60;99.90;;;;;;5027270;28;20034;-63
2022/11/17 08:32:32;;;;;;;8.25;5.95;;;9.30;99.90;;;;;;5026803;28;20055;-63
2022/11/17 08:34:57;;;;;;;6.68;5.75;;;9.30;99.90;;;;;;5028110;28;20033;-64
2022/11/17 08:37:23;;;;;;;6.65;5.28;;;9.20;99.90;;;;;;5028782;28;20038;-63
2022/11/17 08:39:48;;;;;;;7.53;6.30;;;9.30;99.90;;;;;;5028332;28;20072;-64
2022/11/17 08:42:15;;;;;;;7.43;5.75;;;9.30;99.90;;;;;;5025285;28;20475;-63
2022/11/17 08:44:41;;;;;;;6.93;5.13;;;9.20;99.90;;;;;;5018712;28;20099;-64
2022/11/17 08:47:06;;;;;;;6.63;4.93;;;9.10;99.90;;;;;;5024458;28;20641;-63
2022/11/17 08:49:32;;;;;;;8.13;4.90;;;9.20;99.90;;;;;;5024698;28;20388;-63
2022/11/17 08:51:57;;;;;;;5.57;5.07;;;9.50;99.90;;;;;;5028141;28;20038;-64
2022/11/17 08:54:23;;;;;;;6.15;5.15;;;9.60;99.90;;;;;;5028499;28;20034;-64
2022/11/17 08:56:48;;;;;;;5.70;5.10;;;9.70;99.90;;;;;;5031291;28;20045;-64
2022/11/17 08:59:14;;;;;;;7.47;5.70;;;9.70;99.90;;;;;;5023760;28;20041;-64
2022/11/17 09:01:40;;;;;;;5.53;4.90;;;9.70;99.90;;;;;;5028490;28;20039;-64
2022/11/17 09:04:05;;;;;;;5.70;4.95;;;9.50;99.90;;;;;;5045149;28;20141;-64
2022/11/17 09:06:31;;;;;;;5.20;4.53;;;9.40;99.90;;;;;;5031187;28;20044;-63
2022/11/17 09:08:56;;;;;;;6.57;5.10;;;9.30;99.90;;;;;;5030294;28;20037;-64
2022/11/17 09:11:22;;;;;;;5.78;4.35;;;9.30;99.90;;;;;;5023633;28;20049;-64
2022/11/17 09:13:48;;;;;;;7.28;5.53;;;9.20;99.90;;;;;;5030864;28;20042;-64
2022/11/17 09:16:14;;;;;;;5.35;4.00;;;9.40;99.90;;;;;;5030326;28;20108;-64
2022/11/17 09:18:39;;;;;;;5.35;4.72;;;9.20;99.90;;;;;;5028239;28;20044;-64
2022/11/17 09:21:08;;;;;;;6.00;4.55;;;9.20;99.90;;;;;;5023466;28;20037;-65
2022/11/17 09:23:33;;;;;;;4.63;4.10;;;9.00;99.90;;;;;;5024619;28;20418;-64
2022/11/17 09:26:08;;;;;;;7.28;5.18;;;8.90;99.90;;;;;;5027582;28;20037;-64
2022/11/17 09:28:33;;;;;;;5.43;4.93;;;8.90;99.90;;;;;;5026732;28;20076;-64
2022/11/17 09:31:08;;;;;;;7.97;4.80;;;9.20;99.90;;;;;;5024107;28;20080;-64
2022/11/17 09:33:33;;;;;;;6.85;5.63;;;9.30;99.90;;;;;;5023269;28;20133;-64
2022/11/17 09:35:59;;;;;;;5.85;4.47;;;9.30;99.90;;;;;;5029636;28;20108;-64
2022/11/17 09:38:24;;;;;;;4.80;4.25;;;9.30;99.90;;;;;;5030962;28;20487;-64
2022/11/17 09:40:51;;;;;;;5.10;4.60;;;9.10;99.90;;;;;;5027126;28;20058;-64
2022/11/17 09:43:34;;;;;;;4.63;3.80;;;9.20;99.90;;;;;;5030446;28;20486;-64
2022/11/17 09:46:23;;;;;;;4.40;4.00;;;9.10;99.90;;;;;;5026625;28;20490;-64
2022/11/17 09:48:59;;;;;;;5.25;4.10;;;9.50;99.90;;;;;;5027602;28;20049;-64
2022/11/17 09:51:28;;;;;;;5.25;4.13;;;9.30;99.90;;;;;;5023296;28;20042;-64
2022/11/17 09:54:02;;;;;;;7.55;4.32;;;9.30;99.90;;;;;;5024648;28;20065;-64
2022/11/17 09:56:27;;;;;;;5.63;4.35;;;9.00;99.90;;;;;;5029689;28;20040;-65
2022/11/17 09:59:00;;;;;;;6.88;4.38;;;9.50;99.90;;;;;;5027370;28;20574;-64
2022/11/17 10:01:27;;;;;;;5.97;5.38;;;9.80;99.90;;;;;;5026988;28;20052;-65
2022/11/17 10:03:55;;;;;;;5.60;4.45;;;10.10;99.90;;;;;;5029759;28;20065;-64
2022/11/17 10:06:23;;;;;;;5.78;4.75;;;9.90;99.90;;;;;;5029839;28;20049;-64
2022/11/17 10:09:10;;;;;;;6.97;4.20;;;10.30;99.90;;;;;;5031313;28;20053;-65
2022/11/17 10:11:40;;;;;;;;;;;10.40;99.90;;;;;;5028667;28;20053;-65
2022/11/17 10:14:14;;;;;;;4.40;4.00;;;10.00;99.90;;;;;;5027802;28;19925;-65
2022/11/17 10:16:51;;;;;;;4.80;4.20;;;9.90;99.90;;;;;;5030274;28;20491;-65
2022/11/17 10:19:18;;;;;;;5.47;4.55;;;9.80;99.90;;;;;;5027563;28;20045;-64
2022/11/17 10:21:46;;;;;;;5.15;4.53;;;9.70;99.90;;;;;;5026971;28;20103;-64
2022/11/17 10:24:31;;;;;;;5.55;4.00;;;10.30;99.90;;;;;;5029873;28;20049;-65
2022/11/17 10:26:57;;;;;;;5.43;4.03;;;10.50;99.90;;;;;;5030457;28;20507;-65
2022/11/17 10:29:22;;;;;;;5.95;4.10;;;10.60;99.90;;;;;;5030458;28;20124;-65
2022/11/17 10:31:48;;;;;;;6.32;3.83;;;10.60;99.90;;;;;;5005056;28;20041;-66
2022/11/17 10:34:34;;;;;;;3.88;3.47;;;10.00;99.90;;;;;;5020023;28;20364;-66
2022/11/17 10:37:12;;;;;;;5.10;4.18;;;9.80;99.90;;;;;;5021835;28;20382;-65
2022/11/17 10:39:40;;;;;;;12.15;4.20;;;10.40;99.90;;;;;;5028166;28;20415;-65
2022/11/17 10:42:17;;;;;;;54.13;8.88;;;10.40;99.90;;;;;;5024090;28;20038;-65
2022/11/17 10:44:50;;;;;;;6.20;4.57;;;10.30;99.90;;;;;;5029303;28;20426;-65
2022/11/17 10:47:34;;;;;;;4.95;4.32;;;10.80;99.90;;;;;;5023113;28;20036;-65
2022/11/17 10:50:20;;;;;;;5.50;4.90;;;10.70;99.90;;;;;;5023959;28;20033;-65
2022/11/17 10:52:47;;;;;;;4.55;3.83;;;10.40;99.90;;;;;;5021615;28;20048;-65
2022/11/17 10:55:19;;;;;;;4.53;4.13;;;10.30;99.90;;;;;;5026833;28;20491;-64
2022/11/17 10:57:51;;;;;;;5.90;3.92;;;10.40;99.90;;;;;;5022368;28;20566;-65
2022/11/17 11:00:27;;;;;;;3.92;3.53;;;10.00;99.90;;;;;;5031025;28;20513;-64
2022/11/17 11:03:17;;;;;;;4.50;3.88;;;10.10;99.90;;;;;;5026663;28;20026;-64
2022/11/17 11:05:59;;;;;;;4.00;3.33;;;10.20;99.90;;;;;;5031328;28;20074;-65
2022/11/17 11:08:39;;;;;;;4.28;3.78;;;9.80;99.90;;;;;;5029743;28;20041;-65
2022/11/17 11:11:16;;;;;;;6.22;3.90;;;10.20;99.90;;;;;;5028382;28;20044;-65
2022/11/17 11:13:56;;;;;;;3.53;3.22;;;10.10;99.90;;;;;;5028810;28;20050;-65
2022/11/17 11:16:25;;;;;;;4.38;3.70;;;10.20;99.90;;;;;;5022443;28;20033;-65
2022/11/17 11:18:52;;;;;;;4.40;3.65;;;10.40;99.90;;;;;;5032174;28;20061;-65
2022/11/17 11:21:26;;;;;;;5.85;4.22;;;10.30;99.90;;;;;;5032697;28;20055;-66
2022/11/17 11:24:12;;;;;;;5.00;4.20;;;10.50;99.90;;;;;;5027833;28;20041;-65
2022/11/17 11:27:00;;;;;;;3.45;3.15;;;10.30;99.90;;;;;;5028633;28;20131;-65
2022/11/17 11:29:51;;;;;;;4.38;3.78;;;10.20;99.90;;;;;;5029996;28;20506;-65
2022/11/17 11:32:38;;;;;;;4.75;3.95;;;10.40;99.90;;;;;;5014702;28;20569;-65
2022/11/17 11:35:07;;;;;;;4.85;3.42;;;10.50;99.90;;;;;;5025641;28;20048;-65
2022/11/17 11:37:47;;;;;;;4.15;3.60;;;10.40;99.90;;;;;;5031119;28;20037;-65
2022/11/17 11:40:20;;;;;;;3.83;3.13;;;10.30;99.90;;;;;;5024277;28;20081;-64
2022/11/17 11:42:52;;;;;;;6.28;4.10;;;10.20;99.90;;;;;;5029063;28;20650;-65
2022/11/17 11:45:26;;;;;;;6.15;3.80;;;10.10;99.90;;;;;;5031415;28;20513;-65
2022/11/17 11:47:51;;;;;;;5.43;3.60;;;10.40;99.90;;;;;;5044436;28;20782;-65
2022/11/17 11:50:20;;;;;;;4.60;3.97;;;10.50;99.90;;;;;;5029773;28;20040;-65
2022/11/17 11:52:50;;;;;;;4.80;3.60;;;11.00;99.90;;;;;;5032561;28;20042;-65
2022/11/17 11:55:16;;;;;;;4.22;3.15;;;10.80;99.90;;;;;;5029519;28;20307;-65
2022/11/17 11:58:09;;;;;;;5.13;3.97;;;11.00;99.90;;;;;;5032640;28;20087;-65
2022/11/17 12:00:37;;;;;;;4.72;3.20;;;11.00;99.90;;;;;;5022883;28;20049;-65
2022/11/17 12:03:22;;;;;;;4.22;3.33;;;11.20;99.90;;;;;;5028671;28;20041;-65
2022/11/17 12:09:31;;;;;;;7.47;4.10;;;11.10;99.90;;;;;;5030234;28;20065;-64
2022/11/17 12:12:00;;;;;;;3.92;2.30;;;11.30;99.90;;;;;;5038548;28;20144;-64
2022/11/17 12:14:27;;;;;;;4.20;2.50;;;11.70;99.90;;;;;;5026439;28;20104;-65
2022/11/17 12:17:25;;;;;;;1.63;1.20;;;11.90;99.90;;;;;;5026468;28;20118;-65
2022/11/17 12:19:58;;;;;;;1.42;1.30;;;11.80;99.90;;;;;;5029497;28;20136;-65
2022/11/17 12:22:32;;;;;;;3.25;1.77;;;11.90;99.90;;;;;;5029482;28;20041;-65
2022/11/17 12:25:18;;;;;;;5.80;1.77;;;12.00;99.90;;;;;;5031734;28;20513;-65
2022/11/17 12:27:49;;;;;;;2.90;1.42;;;11.90;99.90;;;;;;5027837;28;20049;-65
2022/11/17 12:30:44;;;;;;;2.08;1.40;;;12.10;99.90;;;;;;5018217;28;20076;-65
2022/11/17 12:33:09;;;;;;;2.90;1.35;;;12.30;99.90;;;;;;5016209;28;20052;-66
2022/11/17 12:35:37;;;;;;;2.08;1.30;;;11.90;99.90;;;;;;5028696;28;20033;-65
2022/11/17 12:38:15;;;;;;;2.47;1.30;;;11.90;99.90;;;;;;5027492;28;20051;-65
2022/11/17 12:40:49;;;;;;;3.90;1.85;;;11.90;99.90;;;;;;5028197;28;20053;-66
2022/11/17 12:43:14;;;;;;;5.00;1.73;;;12.00;99.90;;;;;;5025802;28;20479;-66
2022/11/17 12:45:52;;;;;;;3.97;1.50;;;12.30;99.90;;;;;;5025122;28;20087;-65
2022/11/17 12:48:23;;;;;;;7.95;1.70;;;12.30;99.90;;;;;;5028770;28;20429;-65
2022/11/17 12:51:16;;;;;;;1.58;1.30;;;12.10;99.90;;;;;;5030604;28;20044;-65
2022/11/17 12:54:14;;;;;;;3.40;1.38;;;12.30;99.90;;;;;;5029768;28;20064;-65
2022/11/17 12:56:52;;;;;;;4.10;1.73;;;11.80;99.90;;;;;;5030012;28;20080;-65
2022/11/17 12:59:41;;;;;;;5.20;1.80;;;12.30;99.90;;;;;;5030498;28;20045;-65
2022/11/17 13:02:33;;;;;;;1.48;1.38;;;12.00;99.90;;;;;;5028510;28;20388;-65
2022/11/17 13:05:17;;;;;;;5.05;1.50;;;12.50;99.90;;;;;;4970059;28;20096;-65
2022/11/17 13:07:43;;;;;;;4.13;1.60;;;12.10;99.90;;;;;;5023334;28;20099;-65
2022/11/17 13:10:29;;;;;;;6.43;1.75;;;11.90;99.90;;;;;;5023852;28;20037;-65
2022/11/17 13:13:22;;;;;;;2.53;1.75;;;11.90;99.90;;;;;;5026382;28;20049;-65
2022/11/17 13:15:57;;;;;;;2.15;1.27;;;12.20;99.90;;;;;;5026187;28;20037;-65
2022/11/17 13:18:43;;;;;;;2.28;1.33;;;11.90;99.90;;;;;;5028370;28;20038;-65
2022/11/17 13:21:27;;;;;;;3.38;1.73;;;12.30;99.90;;;;;;5025257;28;20136;-65
2022/11/17 13:23:53;;;;;;;2.80;1.35;;;12.10;99.90;;;;;;5024876;28;20064;-65
2022/11/17 13:26:21;;;;;;;3.28;1.42;;;12.40;99.90;;;;;;5028636;28;20041;-65
2022/11/17 13:29:00;;;;;;;3.70;1.50;;;12.40;99.90;;;;;;5027777;28;20038;-65
2022/11/17 13:31:25;;;;;;;3.67;1.55;;;12.30;99.90;;;;;;5029602;28;20128;-65
2022/11/17 13:34:08;;;;;;;2.97;1.20;;;12.20;99.90;;;;;;5029920;28;20120;-65